Time;durP1;ratioP1;P1;durP2;ratioP2;P2;SDS_P1;SDS_P2;PMS_P1;PMS_P2;Temp;Humidity;BMP_temperature;BMP_pressure;BME280_temperature;BME280_humidity;BME280_pressure;Samples;Min_cycle;Max_cycle;Signal;HPM_P1;HPM_P2
2023/12/26 00:02:17;;;;;;;7.93;1.98;;;8.50;99.90;;;;;;5008258;28;20050;-80
2023/12/26 00:04:43;;;;;;;7.45;2.63;;;8.50;99.90;;;;;;5016260;28;20073;-78
2023/12/26 00:07:10;;;;;;;7.68;2.63;;;8.50;99.90;;;;;;5022910;28;20093;-78
2023/12/26 00:09:40;;;;;;;4.63;1.80;;;8.50;99.90;;;;;;5017685;28;20092;-79
2023/12/26 00:12:07;;;;;;;3.90;2.13;;;8.50;99.90;;;;;;5013722;28;20124;-81
2023/12/26 00:14:34;;;;;;;3.83;1.77;;;8.50;99.90;;;;;;5014943;28;20046;-78
2023/12/26 00:17:01;;;;;;;6.25;2.15;;;8.50;99.90;;;;;;5017593;28;20050;-79
2023/12/26 00:19:28;;;;;;;9.57;2.15;;;8.50;99.90;;;;;;5019849;28;20072;-80
2023/12/26 00:21:55;;;;;;;5.25;2.55;;;8.50;99.90;;;;;;5007634;28;20112;-80
2023/12/26 00:24:22;;;;;;;4.32;1.60;;;8.50;99.90;;;;;;5014591;28;20046;-79
2023/12/26 00:26:49;;;;;;;6.07;1.98;;;8.50;99.90;;;;;;5024078;28;20046;-80
2023/12/26 00:29:16;;;;;;;5.97;2.33;;;8.50;99.90;;;;;;5020809;28;20477;-79
2023/12/26 00:31:43;;;;;;;7.78;2.60;;;8.50;99.90;;;;;;5017024;28;20445;-79
2023/12/26 00:34:10;;;;;;;6.15;1.73;;;8.50;99.90;;;;;;5010422;28;20054;-80
2023/12/26 00:36:37;;;;;;;5.38;1.73;;;8.50;99.90;;;;;;5019016;28;20390;-79
2023/12/26 00:39:04;;;;;;;8.60;2.15;;;8.60;99.90;;;;;;5013775;28;20096;-79
2023/12/26 00:41:31;;;;;;;7.57;2.08;;;8.60;99.90;;;;;;5018114;28;20060;-80
2023/12/26 00:43:57;;;;;;;5.90;1.55;;;8.60;99.90;;;;;;5014806;28;20100;-79
2023/12/26 00:46:24;;;;;;;5.07;1.90;;;8.70;99.90;;;;;;5020906;28;20125;-79
2023/12/26 00:48:51;;;;;;;5.90;1.77;;;8.70;99.90;;;;;;5015101;28;20050;-79
2023/12/26 00:51:18;;;;;;;3.85;1.65;;;8.70;99.90;;;;;;5021433;28;20046;-80
2023/12/26 00:53:45;;;;;;;3.17;1.73;;;8.70;99.90;;;;;;5025985;28;20047;-80
2023/12/26 00:56:12;;;;;;;7.32;1.90;;;8.70;99.90;;;;;;5009885;28;20051;-80
2023/12/26 00:58:39;;;;;;;8.10;2.38;;;8.70;99.90;;;;;;5007142;28;20043;-80
2023/12/26 01:01:06;;;;;;;7.90;2.10;;;8.70;99.90;;;;;;5014495;28;20046;-80
2023/12/26 01:03:33;;;;;;;4.82;1.95;;;8.70;99.90;;;;;;5023230;28;20077;-79
2023/12/26 01:05:59;;;;;;;2.83;1.70;;;8.80;99.90;;;;;;5012360;28;20050;-80
2023/12/26 01:08:26;;;;;;;8.32;1.60;;;8.80;99.90;;;;;;5017048;28;20049;-79
2023/12/26 01:10:53;;;;;;;7.20;2.40;;;8.80;99.90;;;;;;5008667;28;20089;-79
2023/12/26 01:13:20;;;;;;;6.05;1.52;;;8.70;99.90;;;;;;5015825;28;20084;-79
2023/12/26 01:15:46;;;;;;;8.23;1.60;;;8.70;99.90;;;;;;5008524;28;20458;-79
2023/12/26 01:18:13;;;;;;;3.50;1.65;;;8.70;99.90;;;;;;5014476;28;20085;-79
2023/12/26 01:20:40;;;;;;;8.27;2.60;;;8.70;99.90;;;;;;4996919;28;20556;-80
2023/12/26 01:23:07;;;;;;;7.57;2.03;;;8.70;99.90;;;;;;5015192;28;20054;-79
2023/12/26 01:25:34;;;;;;;5.47;2.10;;;8.70;99.90;;;;;;5016812;28;20083;-79
2023/12/26 01:28:01;;;;;;;3.70;1.63;;;8.60;99.90;;;;;;5017000;28;20093;-80
2023/12/26 01:30:27;;;;;;;2.92;1.65;;;8.60;99.90;;;;;;5015115;28;20045;-80
2023/12/26 01:32:54;;;;;;;9.30;1.90;;;8.60;99.90;;;;;;5014722;28;20042;-79
2023/12/26 01:35:21;;;;;;;12.27;3.00;;;8.60;99.90;;;;;;5018607;28;20051;-79
2023/12/26 01:37:48;;;;;;;8.30;2.30;;;8.60;99.90;;;;;;5015756;28;20092;-79
2023/12/26 01:40:15;;;;;;;5.47;2.17;;;8.50;99.90;;;;;;5012594;28;20083;-79
2023/12/26 01:42:42;;;;;;;6.65;1.90;;;8.50;99.90;;;;;;5012076;28;20085;-79
2023/12/26 01:45:09;;;;;;;10.55;2.25;;;8.50;99.90;;;;;;5028280;28;20060;-80
2023/12/26 01:47:37;;;;;;;5.43;2.13;;;8.50;99.90;;;;;;5023261;28;20425;-79
2023/12/26 01:50:04;;;;;;;7.75;2.05;;;8.50;99.90;;;;;;5018035;28;20148;-79
2023/12/26 01:52:31;;;;;;;4.90;1.95;;;8.40;99.90;;;;;;5010939;28;20497;-81
2023/12/26 01:54:59;;;;;;;5.85;2.03;;;8.40;99.90;;;;;;5015183;28;20081;-79
2023/12/26 01:57:26;;;;;;;6.25;1.63;;;8.30;99.90;;;;;;5007955;28;20053;-77
2023/12/26 01:59:53;;;;;;;6.55;1.98;;;8.30;99.90;;;;;;5012219;28;20042;-79
2023/12/26 02:02:21;;;;;;;5.13;1.75;;;8.20;99.90;;;;;;5010296;28;20053;-79
2023/12/26 02:04:48;;;;;;;3.17;1.83;;;8.20;99.90;;;;;;5018311;28;20081;-80
2023/12/26 02:07:15;;;;;;;6.03;2.17;;;8.10;99.90;;;;;;5015184;28;20128;-78
2023/12/26 02:09:42;;;;;;;5.25;2.08;;;8.10;99.90;;;;;;5010331;28;20042;-78
2023/12/26 02:12:09;;;;;;;8.13;2.42;;;8.00;99.90;;;;;;5013673;28;20073;-77
2023/12/26 02:14:36;;;;;;;5.80;1.80;;;8.00;99.90;;;;;;5010461;28;20089;-78
2023/12/26 02:17:05;;;;;;;7.53;1.98;;;8.00;99.90;;;;;;5013000;28;20050;-81
2023/12/26 02:19:31;;;;;;;8.05;2.33;;;7.90;99.90;;;;;;5010631;28;20072;-79
2023/12/26 02:21:58;;;;;;;4.75;1.95;;;7.90;99.90;;;;;;5022669;28;20056;-79
2023/12/26 02:24:25;;;;;;;8.15;1.88;;;7.90;99.90;;;;;;5021175;28;20104;-80
2023/12/26 02:26:55;;;;;;;5.80;2.30;;;7.90;99.90;;;;;;5017528;28;20088;-80
2023/12/26 02:29:24;;;;;;;6.38;1.80;;;7.80;99.90;;;;;;5015475;28;20048;-80
2023/12/26 02:31:54;;;;;;;8.15;2.08;;;7.80;99.90;;;;;;5022746;28;20487;-80
2023/12/26 02:34:22;;;;;;;5.25;1.77;;;7.80;99.90;;;;;;5012704;28;20037;-80
2023/12/26 02:36:50;;;;;;;6.63;1.77;;;7.80;99.90;;;;;;5000838;28;20472;-81
2023/12/26 02:39:16;;;;;;;8.65;1.95;;;7.80;99.90;;;;;;5020611;28;20045;-79
2023/12/26 02:41:44;;;;;;;8.25;2.35;;;7.80;99.90;;;;;;5015416;28;20421;-81
2023/12/26 02:44:10;;;;;;;9.68;2.03;;;7.70;99.90;;;;;;5013138;28;20050;-80
2023/12/26 02:46:37;;;;;;;4.45;2.13;;;7.70;99.90;;;;;;5011606;28;20081;-80
2023/12/26 02:49:04;;;;;;;7.95;1.98;;;7.70;99.90;;;;;;5016201;28;20045;-79
2023/12/26 02:51:31;;;;;;;5.78;2.15;;;7.70;99.90;;;;;;5021001;28;20069;-80
2023/12/26 02:53:57;;;;;;;7.15;2.38;;;7.70;99.90;;;;;;5022792;28;20038;-79
2023/12/26 02:56:24;;;;;;;7.25;2.30;;;7.60;99.90;;;;;;5013009;28;20053;-79
2023/12/26 02:58:51;;;;;;;12.88;2.40;;;7.60;99.90;;;;;;5003550;28;20465;-80
2023/12/26 03:01:17;;;;;;;12.45;2.97;;;7.60;99.90;;;;;;5013210;28;20046;-81
2023/12/26 03:03:44;;;;;;;7.18;2.53;;;7.60;99.90;;;;;;5016974;28;20089;-79
2023/12/26 03:06:11;;;;;;;7.22;2.45;;;7.60;99.90;;;;;;5017223;28;20053;-79
2023/12/26 03:08:38;;;;;;;6.88;2.33;;;7.50;99.90;;;;;;5019064;28;20441;-81
2023/12/26 03:11:04;;;;;;;17.70;2.35;;;7.50;99.90;;;;;;5007292;28;20042;-80
2023/12/26 03:13:31;;;;;;;4.13;1.83;;;7.50;99.90;;;;;;5016295;28;20038;-79
2023/12/26 03:15:58;;;;;;;9.73;2.03;;;7.50;99.90;;;;;;5019295;28;20077;-80
2023/12/26 03:18:24;;;;;;;11.05;2.55;;;7.50;99.90;;;;;;5021903;28;20133;-80
2023/12/26 03:20:51;;;;;;;14.82;2.00;;;7.50;99.90;;;;;;5013844;28;20045;-79
2023/12/26 03:23:18;;;;;;;7.70;2.55;;;7.50;99.90;;;;;;5020158;28;20394;-80
2023/12/26 03:25:45;;;;;;;12.98;2.63;;;7.40;99.90;;;;;;5007738;28;20046;-79
2023/12/26 03:28:11;;;;;;;10.10;2.08;;;7.40;99.90;;;;;;5016714;28;20105;-79
2023/12/26 03:30:38;;;;;;;8.20;2.92;;;7.40;99.90;;;;;;5019322;28;20477;-79
2023/12/26 03:33:06;;;;;;;6.25;2.20;;;7.40;99.90;;;;;;5020422;28;20045;-79
2023/12/26 03:35:33;;;;;;;5.53;1.92;;;7.40;99.90;;;;;;5013822;28;20077;-81
2023/12/26 03:38:00;;;;;;;8.05;2.55;;;7.40;99.90;;;;;;5014182;28;20117;-80
2023/12/26 03:40:26;;;;;;;8.77;2.63;;;7.40;99.90;;;;;;5022403;28;20049;-79
2023/12/26 03:42:54;;;;;;;3.97;2.60;;;7.40;99.90;;;;;;5013988;28;20118;-81
2023/12/26 03:45:21;;;;;;;7.45;1.80;;;7.40;99.90;;;;;;5018936;28;20087;-80
2023/12/26 03:47:48;;;;;;;8.68;2.47;;;7.40;99.90;;;;;;5016763;28;20482;-80
2023/12/26 03:50:15;;;;;;;8.00;2.30;;;7.40;99.90;;;;;;5019156;28;20137;-81
2023/12/26 03:52:42;;;;;;;6.53;2.15;;;7.40;99.90;;;;;;5022982;28;20042;-80
2023/12/26 03:55:08;;;;;;;9.20;2.38;;;7.40;99.90;;;;;;5020219;28;20073;-79
2023/12/26 03:57:36;;;;;;;5.25;2.08;;;7.40;99.90;;;;;;5017385;28;20050;-79
2023/12/26 04:00:04;;;;;;;6.70;2.25;;;7.40;99.90;;;;;;5013480;28;20050;-79
2023/12/26 04:02:31;;;;;;;6.45;2.00;;;7.40;99.90;;;;;;5029118;28;20483;-80
2023/12/26 04:04:58;;;;;;;7.45;2.08;;;7.40;99.90;;;;;;5011971;28;20077;-79
2023/12/26 04:07:25;;;;;;;11.13;2.38;;;7.40;99.90;;;;;;5024180;28;20052;-79
2023/12/26 04:09:51;;;;;;;5.85;2.00;;;7.40;99.90;;;;;;5007541;28;20096;-80
2023/12/26 04:12:18;;;;;;;4.53;2.15;;;7.40;99.90;;;;;;5021460;28;20097;-80
2023/12/26 04:14:45;;;;;;;7.40;2.30;;;7.40;99.90;;;;;;5010028;28;20046;-80
2023/12/26 04:17:12;;;;;;;3.92;1.90;;;7.40;99.90;;;;;;5025372;28;20053;-79
2023/12/26 04:19:38;;;;;;;8.77;2.30;;;7.40;99.90;;;;;;5021375;28;20049;-81
2023/12/26 04:22:05;;;;;;;5.78;2.17;;;7.40;99.90;;;;;;5012450;28;20050;-80
2023/12/26 04:24:32;;;;;;;7.13;2.10;;;7.40;99.90;;;;;;5015242;28;20087;-80
2023/12/26 04:26:58;;;;;;;10.32;2.00;;;7.50;99.90;;;;;;5024021;28;20050;-80
2023/12/26 04:29:25;;;;;;;4.85;1.90;;;7.50;99.90;;;;;;5019092;28;20057;-80
2023/12/26 04:31:52;;;;;;;4.82;1.73;;;7.50;99.90;;;;;;5011408;28;20081;-78
2023/12/26 04:34:18;;;;;;;8.23;1.98;;;7.50;99.90;;;;;;5016447;28;20111;-79
2023/12/26 04:36:45;;;;;;;8.70;2.08;;;7.50;99.90;;;;;;5015722;28;20049;-79
2023/12/26 04:39:12;;;;;;;6.22;1.95;;;7.50;99.90;;;;;;5012620;28;20506;-80
2023/12/26 04:41:39;;;;;;;9.70;2.53;;;7.50;99.90;;;;;;5010023;28;20053;-79
2023/12/26 04:44:05;;;;;;;4.90;2.30;;;7.50;99.90;;;;;;5016761;28;20049;-80
2023/12/26 04:46:32;;;;;;;6.88;2.20;;;7.60;99.90;;;;;;5014394;28;20477;-81
2023/12/26 04:48:59;;;;;;;4.72;1.70;;;7.60;99.90;;;;;;5016783;28;20077;-79
2023/12/26 04:51:29;;;;;;;6.38;2.00;;;7.60;99.90;;;;;;5012985;28;20085;-79
2023/12/26 04:53:55;;;;;;;7.80;2.20;;;7.60;99.90;;;;;;5014149;28;20074;-80
2023/12/26 04:56:22;;;;;;;7.05;2.10;;;7.60;99.90;;;;;;5012945;28;20108;-79
2023/12/26 04:58:51;;;;;;;5.00;1.50;;;7.60;99.90;;;;;;5017400;28;20480;-80
2023/12/26 05:01:19;;;;;;;8.95;2.50;;;7.60;99.90;;;;;;5015551;28;20054;-79
2023/12/26 05:03:47;;;;;;;6.85;1.73;;;7.60;99.90;;;;;;5015460;28;20426;-79
2023/12/26 05:06:18;;;;;;;6.43;1.80;;;7.60;99.90;;;;;;5015313;28;20457;-79
2023/12/26 05:08:46;;;;;;;11.80;3.40;;;7.60;99.90;;;;;;5013346;28;20052;-80
2023/12/26 05:11:23;;;;;;;7.18;1.95;;;7.60;99.90;;;;;;5011998;28;20514;-80
2023/12/26 05:13:51;;;;;;;6.90;2.30;;;7.60;99.90;;;;;;5009644;28;20053;-79
2023/12/26 05:16:17;;;;;;;4.50;1.60;;;7.60;99.90;;;;;;5018399;28;20101;-80
2023/12/26 05:18:44;;;;;;;6.80;1.80;;;7.60;99.90;;;;;;5010126;28;20541;-79
2023/12/26 05:21:22;;;;;;;2.67;1.83;;;7.60;99.90;;;;;;5016286;28;20058;-79
2023/12/26 05:23:49;;;;;;;5.47;2.45;;;7.60;99.90;;;;;;5014467;28;20124;-80
2023/12/26 05:26:16;;;;;;;5.05;1.90;;;7.70;99.90;;;;;;5016729;28;20054;-80
2023/12/26 05:28:42;;;;;;;5.38;1.98;;;7.60;99.90;;;;;;5012220;28;20505;-80
2023/12/26 05:31:09;;;;;;;5.47;1.88;;;7.70;99.90;;;;;;5013494;28;20054;-80
2023/12/26 05:33:36;;;;;;;6.57;1.92;;;7.70;99.90;;;;;;5011268;28;20386;-79
2023/12/26 05:36:04;;;;;;;3.25;1.63;;;7.70;99.90;;;;;;5011848;28;20100;-80
2023/12/26 05:38:31;;;;;;;4.63;1.88;;;7.80;99.90;;;;;;5016995;28;20045;-81
2023/12/26 05:40:59;;;;;;;5.40;1.70;;;7.80;99.90;;;;;;5010521;28;20049;-80
2023/12/26 05:43:25;;;;;;;4.15;1.40;;;7.80;99.90;;;;;;5015412;28;20152;-81
2023/12/26 05:45:52;;;;;;;3.08;1.58;;;7.90;99.90;;;;;;5012048;28;20129;-80
2023/12/26 05:48:19;;;;;;;7.70;1.98;;;7.90;99.90;;;;;;5019534;28;20109;-79
2023/12/26 05:50:46;;;;;;;8.23;1.95;;;7.90;99.90;;;;;;5010108;28;20042;-81
2023/12/26 05:53:12;;;;;;;3.90;1.63;;;8.00;99.90;;;;;;5016023;28;20077;-79
2023/12/26 05:55:39;;;;;;;5.50;1.90;;;8.00;99.90;;;;;;5014585;28;20120;-80
2023/12/26 05:58:06;;;;;;;5.20;1.60;;;8.00;99.90;;;;;;4998399;28;20125;-80
2023/12/26 06:00:32;;;;;;;7.63;2.05;;;8.00;99.90;;;;;;5012689;28;20085;-79
2023/12/26 06:02:59;;;;;;;5.43;1.60;;;8.00;99.90;;;;;;5011979;28;20045;-81
2023/12/26 06:05:26;;;;;;;5.70;1.70;;;8.00;99.90;;;;;;5010672;28;20057;-81
2023/12/26 06:07:53;;;;;;;5.53;1.60;;;8.10;99.90;;;;;;5014988;28;20042;-81
2023/12/26 06:10:20;;;;;;;3.88;1.40;;;8.10;99.90;;;;;;5013558;28;20073;-79
2023/12/26 06:12:47;;;;;;;10.27;1.63;;;8.10;99.90;;;;;;5014274;28;20042;-78
2023/12/26 06:15:13;;;;;;;5.47;2.10;;;8.10;99.90;;;;;;5011061;28;20069;-79
2023/12/26 06:17:40;;;;;;;7.85;2.85;;;8.10;99.90;;;;;;5014129;28;20095;-78
2023/12/26 06:20:10;;;;;;;5.82;2.90;;;8.10;99.90;;;;;;5017682;28;20523;-79
2023/12/26 06:22:36;;;;;;;10.00;2.72;;;8.10;99.90;;;;;;4992007;28;20100;-79
2023/12/26 06:25:04;;;;;;;5.63;1.98;;;8.10;99.90;;;;;;5014940;28;20105;-80
2023/12/26 06:27:30;;;;;;;4.68;2.53;;;8.10;99.90;;;;;;5013127;28;20054;-78
2023/12/26 06:29:57;;;;;;;11.90;5.07;;;8.10;99.90;;;;;;5016138;28;20042;-80
2023/12/26 06:32:24;;;;;;;11.05;5.40;;;8.10;99.90;;;;;;5014366;28;20065;-79
2023/12/26 06:34:50;;;;;;;9.18;2.55;;;8.10;99.90;;;;;;5022395;28;20041;-78
2023/12/26 06:37:17;;;;;;;12.25;1.90;;;8.10;99.90;;;;;;4999044;28;20046;-79
2023/12/26 06:39:44;;;;;;;6.32;1.67;;;8.10;99.90;;;;;;5016349;28;20131;-78
2023/12/26 06:42:11;;;;;;;6.05;1.70;;;8.20;99.90;;;;;;5000314;28;20109;-79
2023/12/26 06:44:38;;;;;;;6.05;1.88;;;8.20;99.90;;;;;;5011246;28;20132;-81
2023/12/26 06:47:05;;;;;;;5.22;1.83;;;8.20;99.90;;;;;;5010724;28;20057;-79
2023/12/26 06:49:31;;;;;;;7.35;2.00;;;8.20;99.90;;;;;;5013294;28;20454;-78
2023/12/26 06:52:00;;;;;;;6.10;1.90;;;8.20;99.90;;;;;;5017109;28;20088;-78
2023/12/26 06:54:26;;;;;;;3.38;1.48;;;8.20;99.90;;;;;;5002497;28;20050;-79
2023/12/26 06:56:54;;;;;;;8.35;1.85;;;8.10;99.90;;;;;;5021497;28;20532;-79
2023/12/26 06:59:21;;;;;;;7.28;1.60;;;8.10;99.90;;;;;;5014129;28;20046;-79
2023/12/26 07:01:48;;;;;;;8.45;2.03;;;8.10;99.90;;;;;;5020484;28;20057;-79
2023/12/26 07:04:15;;;;;;;9.13;2.35;;;8.10;99.90;;;;;;5013064;28;20085;-80
2023/12/26 07:06:41;;;;;;;4.78;2.35;;;8.10;99.90;;;;;;5025057;28;20049;-78
2023/12/26 07:09:08;;;;;;;8.90;3.13;;;8.10;99.90;;;;;;4999968;28;20137;-79
2023/12/26 07:11:35;;;;;;;7.38;2.63;;;8.10;99.90;;;;;;5023435;28;20523;-80
2023/12/26 07:14:01;;;;;;;6.18;2.38;;;8.10;99.90;;;;;;5019255;28;20125;-79
2023/12/26 07:16:30;;;;;;;7.25;1.92;;;8.10;99.90;;;;;;5021096;28;20120;-79
2023/12/26 07:18:56;;;;;;;7.45;1.83;;;8.10;99.90;;;;;;5016987;28;20041;-78
2023/12/26 07:21:23;;;;;;;13.13;2.92;;;8.10;99.90;;;;;;5017814;28;20533;-79
2023/12/26 07:23:50;;;;;;;9.02;2.35;;;8.10;99.90;;;;;;5015805;28;20072;-79
2023/12/26 07:26:16;;;;;;;7.22;1.80;;;8.10;99.90;;;;;;5016613;28;20076;-78
2023/12/26 07:28:43;;;;;;;8.65;2.00;;;8.10;99.90;;;;;;5021803;28;20080;-79
2023/12/26 07:31:20;;;;;;;3.70;1.30;;;8.10;99.90;;;;;;5015386;28;20458;-79
2023/12/26 07:33:47;;;;;;;4.43;1.60;;;8.10;99.90;;;;;;5017711;28;20473;-79
2023/12/26 07:36:14;;;;;;;8.68;2.00;;;8.10;99.90;;;;;;5015620;28;20140;-79
2023/12/26 07:38:41;;;;;;;7.35;2.95;;;8.10;99.90;;;;;;5019014;28;20052;-79
2023/12/26 07:41:08;;;;;;;8.18;2.00;;;8.10;99.90;;;;;;5012852;28;20053;-80
2023/12/26 07:43:35;;;;;;;5.05;2.10;;;8.10;99.90;;;;;;5024572;28;20092;-80
2023/12/26 07:46:01;;;;;;;4.88;1.60;;;8.10;99.90;;;;;;5022611;28;20573;-79
2023/12/26 07:48:28;;;;;;;10.70;1.73;;;8.20;99.90;;;;;;5022262;28;20137;-79
2023/12/26 07:50:55;;;;;;;6.45;1.77;;;8.20;99.90;;;;;;5016431;28;20424;-78
2023/12/26 07:53:22;;;;;;;5.88;1.73;;;8.20;99.90;;;;;;5018845;28;20042;-79
2023/12/26 07:55:49;;;;;;;5.90;1.65;;;8.20;99.90;;;;;;5016459;28;20073;-79
2023/12/26 07:58:16;;;;;;;6.22;2.08;;;8.20;99.90;;;;;;4999784;28;20086;-78
2023/12/26 08:00:44;;;;;;;11.30;4.28;;;8.30;99.90;;;;;;5021256;28;20096;-78
2023/12/26 08:03:15;;;;;;;19.65;8.25;;;8.30;99.90;;;;;;5016397;28;20081;-79
2023/12/26 08:05:42;;;;;;;12.50;5.07;;;8.30;99.90;;;;;;5017603;28;20056;-80
2023/12/26 08:08:11;;;;;;;8.40;3.20;;;8.30;99.90;;;;;;5012194;28;20100;-80
2023/12/26 08:10:38;;;;;;;6.07;2.65;;;8.40;99.90;;;;;;5022758;28;20046;-80
2023/12/26 08:13:05;;;;;;;3.22;1.75;;;8.40;99.90;;;;;;5011154;28;20082;-79
2023/12/26 08:15:31;;;;;;;10.43;2.38;;;8.40;99.90;;;;;;5020073;28;20129;-78
2023/12/26 08:17:58;;;;;;;7.80;2.20;;;8.40;99.90;;;;;;5014554;28;20049;-81
2023/12/26 08:20:25;;;;;;;4.32;1.58;;;8.40;99.90;;;;;;5016884;28;20054;-78
2023/12/26 08:22:52;;;;;;;5.50;1.83;;;8.50;99.90;;;;;;5014370;28;20046;-81
2023/12/26 08:25:19;;;;;;;7.22;2.00;;;8.50;99.90;;;;;;5017271;28;20054;-80
2023/12/26 08:27:46;;;;;;;6.93;1.95;;;8.50;99.90;;;;;;5009277;28;20124;-81
2023/12/26 08:30:14;;;;;;;6.30;1.60;;;8.50;99.90;;;;;;5012315;28;20073;-77
2023/12/26 08:32:41;;;;;;;7.75;1.92;;;8.60;99.90;;;;;;5017340;28;20049;-80
2023/12/26 08:35:08;;;;;;;4.28;1.90;;;8.60;99.90;;;;;;5014763;28;20038;-78
2023/12/26 08:37:35;;;;;;;5.03;1.40;;;8.60;99.90;;;;;;5015165;28;20105;-81
2023/12/26 08:40:02;;;;;;;5.47;1.63;;;8.60;99.90;;;;;;5016479;28;20077;-78
2023/12/26 08:42:28;;;;;;;3.20;1.77;;;8.60;99.90;;;;;;5020066;28;20045;-80
2023/12/26 08:44:55;;;;;;;7.18;1.70;;;8.70;99.90;;;;;;5021897;28;20073;-79
2023/12/26 08:47:22;;;;;;;8.07;1.52;;;8.70;99.90;;;;;;5021757;28;20060;-80
2023/12/26 08:49:49;;;;;;;6.03;2.08;;;8.80;99.90;;;;;;5013580;28;20096;-79
2023/12/26 08:52:15;;;;;;;7.65;2.13;;;8.70;99.90;;;;;;5015838;28;20517;-79
2023/12/26 08:54:43;;;;;;;4.57;1.63;;;8.80;99.90;;;;;;5014357;28;21073;-79
2023/12/26 08:57:10;;;;;;;3.65;1.40;;;8.80;99.90;;;;;;5017929;28;20042;-79
2023/12/26 08:59:37;;;;;;;7.38;1.88;;;8.90;99.90;;;;;;5009800;28;20050;-81
2023/12/26 09:02:03;;;;;;;6.20;2.35;;;8.90;99.90;;;;;;4997308;28;20046;-79
2023/12/26 09:04:30;;;;;;;6.30;1.52;;;8.90;99.90;;;;;;5016787;28;20128;-79
2023/12/26 09:06:57;;;;;;;7.90;1.80;;;8.90;99.90;;;;;;5014835;28;20413;-77
2023/12/26 09:09:26;;;;;;;7.03;1.65;;;9.00;99.90;;;;;;5010658;28;20053;-81
2023/12/26 09:11:56;;;;;;;5.93;1.52;;;9.10;99.90;;;;;;4998132;28;20521;-79
2023/12/26 09:14:23;;;;;;;7.32;1.65;;;9.10;99.90;;;;;;5017811;28;20493;-80
2023/12/26 09:16:50;;;;;;;4.82;1.90;;;9.10;99.90;;;;;;5011230;28;20069;-80
2023/12/26 09:19:17;;;;;;;5.00;1.65;;;9.10;99.90;;;;;;5017223;28;20413;-81
2023/12/26 09:21:44;;;;;;;5.38;1.75;;;9.20;99.90;;;;;;5014328;28;20046;-81
2023/12/26 09:24:10;;;;;;;8.60;2.10;;;9.20;99.90;;;;;;5019678;28;20049;-78
2023/12/26 09:26:37;;;;;;;8.05;2.05;;;9.30;99.90;;;;;;5017261;28;20572;-80
2023/12/26 09:29:05;;;;;;;5.80;2.33;;;9.30;99.90;;;;;;5024493;28;20045;-78
2023/12/26 09:31:31;;;;;;;9.18;2.30;;;9.30;99.90;;;;;;5009758;28;20100;-78
2023/12/26 09:33:58;;;;;;;10.15;1.70;;;9.40;99.90;;;;;;5017281;28;20052;-80
2023/12/26 09:36:25;;;;;;;9.80;2.47;;;9.40;99.90;;;;;;5012593;28;20054;-80
2023/12/26 09:38:52;;;;;;;5.57;1.88;;;9.40;99.90;;;;;;5016605;28;20046;-80
2023/12/26 09:41:26;;;;;;;6.20;2.22;;;9.40;99.90;;;;;;5012280;28;20076;-80
2023/12/26 09:43:53;;;;;;;6.88;2.42;;;9.40;99.90;;;;;;5011690;28;20140;-81
2023/12/26 09:46:20;;;;;;;10.23;1.92;;;9.50;99.90;;;;;;5017982;28;20100;-81
2023/12/26 09:48:47;;;;;;;8.57;2.60;;;9.50;99.90;;;;;;5018175;28;20571;-81
2023/12/26 09:51:21;;;;;;;7.82;2.00;;;9.50;99.90;;;;;;5021415;28;20050;-81
2023/12/26 09:53:56;;;;;;;4.70;1.70;;;9.50;99.90;;;;;;5012098;28;20497;-81
2023/12/26 09:56:24;;;;;;;5.93;1.95;;;9.50;99.90;;;;;;5015232;28;20042;-80
2023/12/26 09:58:54;;;;;;;7.22;1.60;;;9.60;99.90;;;;;;5022042;28;20552;-79
2023/12/26 10:01:21;;;;;;;4.80;1.73;;;9.60;99.90;;;;;;5012567;28;20084;-81
2023/12/26 10:03:48;;;;;;;6.43;1.90;;;9.60;99.90;;;;;;5003059;28;20057;-81
2023/12/26 10:06:15;;;;;;;4.85;1.33;;;9.70;99.90;;;;;;5015803;28;20132;-80
2023/12/26 10:08:42;;;;;;;7.40;1.60;;;9.80;99.90;;;;;;4999272;28;20054;-80
2023/12/26 10:11:13;;;;;;;6.93;1.65;;;9.80;99.90;;;;;;4994571;28;20047;-78
2023/12/26 10:13:43;;;;;;;6.70;2.08;;;9.90;99.90;;;;;;5017163;28;20100;-81
2023/12/26 10:16:11;;;;;;;5.85;2.00;;;9.90;99.90;;;;;;5014173;28;20410;-79
2023/12/26 10:18:39;;;;;;;9.07;1.60;;;9.90;99.90;;;;;;5016941;28;20046;-79
2023/12/26 10:21:06;;;;;;;4.38;1.48;;;9.90;99.90;;;;;;5016155;28;20080;-80
2023/12/26 10:23:34;;;;;;;5.03;2.08;;;10.00;99.90;;;;;;5004697;28;20096;-80
2023/12/26 10:26:01;;;;;;;5.35;2.03;;;10.00;99.90;;;;;;5010912;28;20096;-79
2023/12/26 10:28:28;;;;;;;6.10;1.67;;;10.00;99.90;;;;;;5014695;28;20113;-79
2023/12/26 10:30:56;;;;;;;6.50;3.03;;;10.10;99.90;;;;;;5004295;28;20041;-79
2023/12/26 10:33:26;;;;;;;6.28;2.05;;;10.10;99.90;;;;;;5011279;28;20062;-80
2023/12/26 10:36:04;;;;;;;7.72;1.90;;;10.10;99.90;;;;;;5012182;28;20413;-81
2023/12/26 10:38:31;;;;;;;4.53;1.83;;;10.20;99.90;;;;;;5013712;28;20101;-80
2023/12/26 10:41:00;;;;;;;4.50;1.58;;;10.20;99.90;;;;;;5017539;28;20485;-80
2023/12/26 10:43:29;;;;;;;5.43;1.40;;;10.20;99.90;;;;;;5012381;28;20042;-81
2023/12/26 10:46:00;;;;;;;3.72;1.45;;;10.20;99.90;;;;;;5000587;28;20045;-81
2023/12/26 10:48:34;;;;;;;5.60;1.55;;;10.10;99.90;;;;;;5016770;28;20474;-81
2023/12/26 10:51:01;;;;;;;4.20;1.38;;;10.10;99.90;;;;;;5015028;28;20041;-80
2023/12/26 10:53:43;;;;;;;5.40;1.95;;;10.10;99.90;;;;;;5017706;28;20052;-79
2023/12/26 10:56:13;;;;;;;7.20;2.20;;;10.00;99.90;;;;;;5017354;28;20167;-79
2023/12/26 10:58:41;;;;;;;5.68;1.73;;;9.90;99.90;;;;;;5013901;28;20092;-79
2023/12/26 11:01:09;;;;;;;12.07;2.35;;;9.90;99.90;;;;;;5015192;28;20049;-79
2023/12/26 11:03:36;;;;;;;5.68;2.10;;;9.80;99.90;;;;;;5010843;28;20053;-79
2023/12/26 11:06:03;;;;;;;7.55;2.28;;;9.80;99.90;;;;;;5013855;28;20048;-79
2023/12/26 11:08:30;;;;;;;8.48;2.00;;;9.80;99.90;;;;;;5017378;28;20049;-80
2023/12/26 11:10:57;;;;;;;8.98;2.35;;;9.80;99.90;;;;;;5019219;28;20505;-80
2023/12/26 11:13:24;;;;;;;8.50;2.30;;;9.80;99.90;;;;;;5009351;28;20520;-80
2023/12/26 11:15:52;;;;;;;6.85;1.92;;;9.80;99.90;;;;;;5008306;28;20089;-79
2023/12/26 11:18:21;;;;;;;7.80;2.28;;;9.80;99.90;;;;;;4991169;28;20050;-79
2023/12/26 11:20:49;;;;;;;5.63;2.00;;;9.80;99.90;;;;;;5007924;28;20046;-80
2023/12/26 11:23:16;;;;;;;8.93;2.67;;;9.80;99.90;;;;;;5012877;28;20193;-79
2023/12/26 11:25:42;;;;;;;7.47;1.80;;;9.80;99.90;;;;;;5007657;28;20565;-80
2023/12/26 11:28:09;;;;;;;8.05;1.83;;;9.70;99.90;;;;;;5016558;28;20502;-79
2023/12/26 11:30:36;;;;;;;7.32;2.25;;;9.80;99.90;;;;;;5004178;28;20078;-80
2023/12/26 11:33:03;;;;;;;8.45;2.15;;;9.70;99.90;;;;;;5001794;28;20048;-80
2023/12/26 11:35:30;;;;;;;8.35;1.85;;;9.80;99.90;;;;;;5020721;28;20050;-82
2023/12/26 11:37:57;;;;;;;9.50;2.05;;;9.80;99.90;;;;;;5020639;28;20037;-80
2023/12/26 11:40:24;;;;;;;6.97;1.92;;;9.80;99.90;;;;;;5014590;28;20111;-80
2023/12/26 11:42:51;;;;;;;7.95;2.53;;;9.80;99.90;;;;;;5018450;28;20165;-79
2023/12/26 11:45:17;;;;;;;6.55;2.13;;;9.90;99.90;;;;;;5012289;28;20053;-80
2023/12/26 11:47:44;;;;;;;5.78;1.90;;;9.90;99.90;;;;;;5013298;28;20422;-79
2023/12/26 11:50:11;;;;;;;9.57;2.88;;;10.00;99.90;;;;;;5019419;28;20103;-80
2023/12/26 11:52:38;;;;;;;8.48;2.45;;;10.00;99.90;;;;;;5022354;28;20434;-80
2023/12/26 11:55:05;;;;;;;5.20;1.73;;;10.00;99.90;;;;;;5023565;28;20076;-80
2023/12/26 11:57:32;;;;;;;6.53;2.17;;;10.00;99.90;;;;;;5014540;28;20442;-80
2023/12/26 11:59:58;;;;;;;10.88;2.10;;;9.90;99.90;;;;;;5023182;28;20115;-79
2023/12/26 12:02:25;;;;;;;9.82;2.15;;;9.90;99.90;;;;;;5009588;28;20049;-79
2023/12/26 12:04:52;;;;;;;7.70;2.33;;;9.90;99.90;;;;;;5020585;28;20082;-79
2023/12/26 12:07:19;;;;;;;9.02;1.88;;;9.90;99.90;;;;;;5009408;28;20089;-79
2023/12/26 12:09:45;;;;;;;5.25;1.92;;;9.90;99.90;;;;;;5023394;28;20416;-81
2023/12/26 12:12:15;;;;;;;6.80;1.60;;;9.90;99.90;;;;;;5021071;28;20069;-79
2023/12/26 12:14:54;;;;;;;8.68;1.80;;;9.90;99.90;;;;;;5013897;28;20469;-80
2023/12/26 12:17:21;;;;;;;5.22;1.42;;;10.00;99.90;;;;;;5014050;28;20049;-78
2023/12/26 12:19:48;;;;;;;7.45;2.20;;;10.00;99.90;;;;;;5012615;28;20137;-80
2023/12/26 12:22:24;;;;;;;7.10;2.28;;;10.10;99.90;;;;;;5017478;28;20053;-80
2023/12/26 12:24:51;;;;;;;7.30;2.17;;;10.20;99.90;;;;;;5011793;28;20489;-80
2023/12/26 12:27:18;;;;;;;8.93;1.80;;;10.20;99.90;;;;;;5016509;28;20132;-80
2023/12/26 12:30:00;;;;;;;7.68;2.15;;;10.30;99.90;;;;;;5009701;28;20046;-82
2023/12/26 12:32:31;;;;;;;7.20;2.03;;;10.40;99.90;;;;;;5014870;28;20046;-81
2023/12/26 12:35:17;;;;;;;8.55;2.05;;;10.50;99.90;;;;;;5012770;28;20045;-81
2023/12/26 12:37:47;;;;;;;5.38;1.60;;;10.50;99.90;;;;;;5016087;28;20046;-81
2023/12/26 12:40:15;;;;;;;6.20;1.85;;;10.50;99.90;;;;;;5012306;28;20231;-80
2023/12/26 12:42:42;;;;;;;4.60;1.63;;;10.50;99.90;;;;;;5013829;28;20116;-79
2023/12/26 12:45:09;;;;;;;8.52;1.50;;;10.60;99.90;;;;;;5023833;28;20072;-80
2023/12/26 12:47:36;;;;;;;7.05;1.55;;;10.60;99.90;;;;;;5015788;28;20060;-80
2023/12/26 12:50:03;;;;;;;5.45;1.33;;;10.60;99.90;;;;;;5016224;28;20128;-79
2023/12/26 12:52:31;;;;;;;6.57;1.48;;;10.60;99.90;;;;;;5009605;28;20050;-80
2023/12/26 12:54:58;;;;;;;8.35;2.00;;;10.60;99.90;;;;;;5021124;28;20508;-79
2023/12/26 12:57:25;;;;;;;5.55;1.45;;;10.60;99.90;;;;;;5008715;28;20084;-79